Grays Chapel, North Carolina
Current Conditions -  °F | °C
As of 4:55 PM on Thursday 27 Nov 2014 (Local Time) from K5W8 Reporting Station
Overcast Overcast  
Wind Chill: 41°   Ceiling: 6500
Heat Index: 45°   Visibility: 10mi
Dew Point: 30°   Wind: 7mph
Humidity: 56%   Direction: 320°NW
Pressure: 30.14"   Gusts: 17mph
Location:  35.8068°N, 79.7101°W
Report Text: K5W8 272155Z AUTO 32006G15KT 10SM OVC065 07/M01 A3014 RMK AO2 T00701012
Loading
Personal Weather Stations






























Interactive Weather Map New forecast layout! Learn more

10-Day Weather Forecast

Advertisements
Track Severe Weather on mobile